Bajadero, Puerto Rico
Current Conditions -  °F | °C
As of 11:50 AM on Tuesday 21 Oct 2014 (Local Time) from TJBQ Reporting Station
Scattered Clouds Scattered Clouds  
Wind Chill: 88°   Ceiling: Unl
Heat Index: 96°   Visibility: 10mi
Dew Point: 73°   Wind: 14mph
Humidity: 62%   Direction: 60°ENE
Pressure: 29.98"   Gusts: NA
Location:  18.42°N, 66.68°W
Report Text: TJBQ 211550Z 06012KT 10SM SCT070 31/23 A2998 RMK RWY08- ATIS W
Loading
Personal Weather Stations






























Interactive Weather Map
Tropical Storm Tracking
New forecast layout! Learn more

10-Day Weather Forecast

Advertisements
Track Severe Weather on mobile